createdAt,value
2018-06-11T00:00:45.023Z,19.06
2018-06-11T00:01:45.078Z,19.08
2018-06-11T00:02:45.028Z,19.06
2018-06-11T00:03:45.029Z,19.00
2018-06-11T00:04:45.030Z,18.95
2018-06-11T00:05:45.030Z,18.91
2018-06-11T00:06:45.038Z,18.95
2018-06-11T00:07:45.032Z,18.92
2018-06-11T00:08:45.039Z,18.98
2018-06-11T00:09:45.034Z,19.00
2018-06-11T00:10:45.035Z,18.94
2018-06-11T00:11:45.039Z,18.94
2018-06-11T00:12:45.037Z,18.92
2018-06-11T00:13:45.035Z,18.85
2018-06-11T00:14:45.039Z,18.91
2018-06-11T00:15:45.039Z,18.95
2018-06-11T00:16:45.039Z,18.98
2018-06-11T00:17:45.039Z,18.90
2018-06-11T00:18:45.057Z,18.91
2018-06-11T00:19:45.043Z,18.88
2018-06-11T00:20:45.044Z,18.82
2018-06-11T00:21:45.044Z,18.82
2018-06-11T00:22:45.050Z,18.72
2018-06-11T00:23:45.048Z,18.81
2018-06-11T00:24:45.048Z,18.70
2018-06-11T00:25:45.049Z,18.73
2018-06-11T00:26:45.053Z,18.62
2018-06-11T00:27:45.056Z,18.66
2018-06-11T00:28:45.052Z,18.62
2018-06-11T00:29:45.053Z,18.63
2018-06-11T00:30:45.052Z,18.62
2018-06-11T00:31:45.052Z,18.67
2018-06-11T00:32:45.057Z,18.62
2018-06-11T00:33:45.055Z,18.58
2018-06-11T00:34:45.062Z,18.63
2018-06-11T00:35:45.060Z,18.62
2018-06-11T00:36:45.058Z,18.66
2018-06-11T00:37:45.065Z,18.72
2018-06-11T00:38:45.062Z,18.78
2018-06-11T00:39:45.061Z,18.72
2018-06-11T00:40:45.062Z,18.69
2018-06-11T00:41:45.066Z,18.65
2018-06-11T00:42:45.066Z,18.62
2018-06-11T00:43:45.064Z,18.63
2018-06-11T00:44:45.067Z,18.67
2018-06-11T00:45:45.068Z,18.65
2018-06-11T00:46:45.069Z,18.69
2018-06-11T00:47:45.063Z,18.63
2018-06-11T00:48:45.066Z,18.62
2018-06-11T00:49:45.068Z,18.57
2018-06-11T00:50:45.072Z,18.66
2018-06-11T00:51:45.073Z,18.55
2018-06-11T00:52:45.076Z,18.57
2018-06-11T00:53:45.073Z,18.48
2018-06-11T00:54:45.075Z,18.44
2018-06-11T00:55:45.075Z,18.48
2018-06-11T00:56:45.087Z,18.44
2018-06-11T00:57:45.079Z,18.41
2018-06-11T00:58:45.079Z,18.29
2018-06-11T00:59:45.082Z,18.33
2018-06-11T01:00:45.081Z,18.21
2018-06-11T01:01:45.081Z,18.23
2018-06-11T01:02:45.082Z,18.20
2018-06-11T01:03:45.078Z,18.29
2018-06-11T01:04:45.082Z,18.17
2018-06-11T01:05:45.080Z,18.32
2018-06-11T01:06:45.082Z,18.20
2018-06-11T01:07:45.087Z,18.07
2018-06-11T01:08:45.086Z,18.11
2018-06-11T01:09:45.089Z,18.10
2018-06-11T01:10:45.087Z,18.10
2018-06-11T01:11:45.087Z,18.12
2018-06-11T01:12:45.089Z,18.12
2018-06-11T01:13:45.090Z,18.12
2018-06-11T01:14:45.092Z,18.27
2018-06-11T01:15:45.092Z,18.21
2018-06-11T01:16:45.093Z,18.27
2018-06-11T01:17:45.097Z,18.20
2018-06-11T01:18:45.095Z,18.21
2018-06-11T01:19:45.100Z,18.25
2018-06-11T01:20:45.097Z,18.21
2018-06-11T01:21:45.097Z,18.30
2018-06-11T01:22:45.093Z,18.36
2018-06-11T01:23:45.102Z,18.30
2018-06-11T01:24:45.099Z,18.30
2018-06-11T01:25:45.100Z,18.32
2018-06-11T01:26:45.100Z,18.30
2018-06-11T01:27:45.098Z,18.29
2018-06-11T01:28:45.102Z,18.30
2018-06-11T01:29:45.102Z,18.36
2018-06-11T01:30:45.109Z,18.29
2018-06-11T01:31:45.106Z,18.21
2018-06-11T01:32:45.104Z,18.27
2018-06-11T01:33:45.110Z,18.23
2018-06-11T01:34:45.107Z,18.21
2018-06-11T01:35:45.107Z,18.21
2018-06-11T01:36:45.107Z,18.17
2018-06-11T01:37:45.109Z,18.23
2018-06-11T01:38:45.109Z,18.17
2018-06-11T01:39:45.104Z,18.21
2018-06-11T01:40:45.111Z,18.30
2018-06-11T01:41:45.110Z,18.17
2018-06-11T01:42:45.111Z,18.20
2018-06-11T01:43:45.112Z,18.27
2018-06-11T01:44:45.112Z,18.20
2018-06-11T01:45:45.109Z,18.15
2018-06-11T01:46:45.112Z,18.12
2018-06-11T01:47:45.113Z,18.17
2018-06-11T01:48:45.115Z,18.11
2018-06-11T01:49:45.115Z,18.12
2018-06-11T01:50:45.122Z,18.07
2018-06-11T01:51:45.117Z,18.08
2018-06-11T01:52:45.117Z,18.05
2018-06-11T01:53:45.118Z,18.00
2018-06-11T01:54:45.118Z,18.12
2018-06-11T01:55:45.121Z,18.08
2018-06-11T01:56:45.115Z,18.05
2018-06-11T01:57:45.117Z,18.08
2018-06-11T01:58:45.121Z,18.00
2018-06-11T01:59:45.117Z,17.89
2018-06-11T02:00:45.122Z,18.00
2018-06-11T02:01:45.121Z,17.96
2018-06-11T02:02:45.121Z,17.90
2018-06-11T02:03:45.122Z,17.93
2018-06-11T02:04:45.121Z,17.95
2018-06-11T02:05:45.124Z,17.90
2018-06-11T02:06:45.137Z,17.96
2018-06-11T02:07:45.123Z,18.02
2018-06-11T02:08:45.123Z,17.95
2018-06-11T02:09:45.127Z,17.95
2018-06-11T02:10:45.125Z,17.99
2018-06-11T02:11:45.125Z,17.97
2018-06-11T02:12:45.120Z,18.00
2018-06-11T02:13:45.124Z,17.95
2018-06-11T02:14:45.127Z,17.97
2018-06-11T02:15:45.126Z,17.96
2018-06-11T02:16:45.127Z,18.00
2018-06-11T02:17:45.127Z,18.08
2018-06-11T02:18:45.130Z,17.95
2018-06-11T02:19:45.128Z,17.93
2018-06-11T02:20:45.128Z,17.90
2018-06-11T02:21:45.129Z,17.90
2018-06-11T02:22:45.132Z,18.03
2018-06-11T02:23:45.129Z,17.96
2018-06-11T02:24:45.129Z,17.92
2018-06-11T02:25:45.130Z,17.89
2018-06-11T02:26:45.134Z,17.93
2018-06-11T02:27:45.141Z,17.93
2018-06-11T02:28:45.131Z,17.77
2018-06-11T02:29:45.130Z,17.90
2018-06-11T02:30:45.131Z,17.97
2018-06-11T02:31:45.132Z,17.81
2018-06-11T02:32:45.136Z,17.86
2018-06-11T02:33:45.133Z,17.97
2018-06-11T02:34:45.132Z,17.92
2018-06-11T02:35:45.134Z,17.87
2018-06-11T02:36:45.136Z,17.77
2018-06-11T02:37:45.133Z,17.79
2018-06-11T02:38:45.138Z,17.78
2018-06-11T02:39:45.133Z,17.79
2018-06-11T02:40:45.133Z,17.77
2018-06-11T02:41:45.133Z,17.79
2018-06-11T02:42:45.133Z,17.82
2018-06-11T02:43:45.133Z,17.75
2018-06-11T02:44:45.133Z,17.77
2018-06-11T02:45:45.134Z,17.75
2018-06-11T02:46:45.133Z,17.82
2018-06-11T02:47:45.135Z,17.75
2018-06-11T02:48:45.140Z,17.81
2018-06-11T02:49:45.135Z,17.81
2018-06-11T02:50:45.134Z,17.79
2018-06-11T02:51:45.133Z,17.84
2018-06-11T02:52:45.138Z,17.75
2018-06-11T02:53:45.137Z,17.84
2018-06-11T02:54:45.135Z,17.81
2018-06-11T02:55:45.133Z,17.82
2018-06-11T02:56:45.137Z,17.78
2018-06-11T02:57:45.134Z,17.79
2018-06-11T02:58:45.135Z,17.78
2018-06-11T02:59:45.134Z,17.75
2018-06-11T03:00:45.139Z,17.86
2018-06-11T03:01:45.135Z,17.87
2018-06-11T03:02:45.141Z,17.92
2018-06-11T03:03:45.137Z,17.92
2018-06-11T03:04:45.135Z,17.93
2018-06-11T03:05:45.135Z,17.99
2018-06-11T03:06:45.135Z,17.99
2018-06-11T03:07:45.136Z,17.99
2018-06-11T03:08:45.136Z,17.99
2018-06-11T03:09:45.138Z,17.99
2018-06-11T03:10:45.141Z,18.10
2018-06-11T03:11:45.133Z,18.03
2018-06-11T03:12:45.135Z,18.15
2018-06-11T03:13:45.136Z,18.11
2018-06-11T03:14:45.134Z,18.18
2018-06-11T03:15:45.133Z,18.14
2018-06-11T03:16:45.135Z,18.25
2018-06-11T03:17:45.141Z,18.27
2018-06-11T03:18:45.140Z,18.32
2018-06-11T03:19:45.134Z,18.30
2018-06-11T03:20:45.135Z,18.33
2018-06-11T03:21:45.163Z,18.37
2018-06-11T03:22:45.136Z,18.42
2018-06-11T03:23:45.166Z,18.45
2018-06-11T03:24:45.141Z,18.51
2018-06-11T03:25:45.137Z,18.36
2018-06-11T03:26:45.139Z,18.50
2018-06-11T03:27:45.136Z,18.62
2018-06-11T03:28:45.138Z,18.72
2018-06-11T03:29:45.134Z,18.81
2018-06-11T03:30:45.133Z,18.91
2018-06-11T03:31:45.136Z,19.00
2018-06-11T03:32:45.138Z,18.99
2018-06-11T03:33:45.136Z,19.00
2018-06-11T03:34:45.139Z,19.08
2018-06-11T03:35:45.187Z,19.08
2018-06-11T03:36:45.139Z,19.13
2018-06-11T03:37:45.137Z,19.22
2018-06-11T03:38:45.138Z,19.21
2018-06-11T03:39:45.140Z,19.11
2018-06-11T03:40:45.147Z,19.02
2018-06-11T03:41:45.139Z,19.07
2018-06-11T03:42:45.140Z,19.06
2018-06-11T03:43:45.140Z,19.02
2018-06-11T03:44:45.135Z,19.14
2018-06-11T03:45:45.138Z,19.14
2018-06-11T03:46:45.139Z,19.23
2018-06-11T03:47:45.140Z,19.37
2018-06-11T03:48:45.142Z,19.47
2018-06-11T03:49:45.142Z,19.58
2018-06-11T03:50:45.145Z,19.66
2018-06-11T03:51:45.152Z,19.77
2018-06-11T03:52:45.156Z,19.74
2018-06-11T03:53:45.143Z,19.95
2018-06-11T03:54:45.146Z,19.96
2018-06-11T03:55:45.146Z,20.08
2018-06-11T03:56:45.153Z,20.02
2018-06-11T03:57:45.146Z,20.01
2018-06-11T03:58:45.152Z,19.78
2018-06-11T03:59:45.145Z,19.58
2018-06-11T04:00:45.211Z,19.37
2018-06-11T04:01:45.147Z,19.40
2018-06-11T04:02:45.148Z,19.14
2018-06-11T04:03:45.146Z,19.10
2018-06-11T04:04:45.150Z,19.10
2018-06-11T04:05:45.151Z,19.02
2018-06-11T04:06:45.152Z,18.91
2018-06-11T04:07:45.154Z,18.91
2018-06-11T04:08:45.153Z,19.00
2018-06-11T04:09:45.156Z,18.90
2018-06-11T04:10:45.221Z,18.91
2018-06-11T04:11:45.155Z,18.94
2018-06-11T04:12:45.157Z,18.91
2018-06-11T04:13:45.155Z,18.98
2018-06-11T04:14:45.155Z,18.92
2018-06-11T04:15:45.155Z,18.94
2018-06-11T04:16:45.156Z,18.88
2018-06-11T04:17:45.156Z,18.90
2018-06-11T04:18:45.159Z,18.87
2018-06-11T04:19:45.157Z,18.91
2018-06-11T04:20:45.158Z,18.92
2018-06-11T04:21:45.160Z,18.85
2018-06-11T04:22:45.160Z,18.90
2018-06-11T04:23:45.159Z,18.85
2018-06-11T04:24:45.165Z,18.81
2018-06-11T04:25:45.161Z,18.90
2018-06-11T04:26:45.160Z,18.85
2018-06-11T04:27:45.165Z,18.82
2018-06-11T04:28:45.161Z,18.85
2018-06-11T04:29:45.169Z,18.84
2018-06-11T04:30:45.166Z,18.84
2018-06-11T04:31:45.165Z,18.85
2018-06-11T04:32:45.168Z,18.84
2018-06-11T04:33:45.167Z,18.87
2018-06-11T04:34:45.179Z,18.81
2018-06-11T04:35:45.163Z,18.92
2018-06-11T04:36:45.165Z,18.88
2018-06-11T04:37:45.186Z,18.87
2018-06-11T04:38:45.167Z,18.90
2018-06-11T04:39:45.167Z,18.99
2018-06-11T04:40:45.170Z,18.92
2018-06-11T04:41:45.169Z,19.02
2018-06-11T04:42:45.168Z,19.07
2018-06-11T04:43:45.169Z,19.11
2018-06-11T04:44:45.172Z,19.08
2018-06-11T04:45:45.175Z,19.13
2018-06-11T04:46:45.173Z,19.10
2018-06-11T04:47:45.171Z,19.11
2018-06-11T04:48:45.172Z,19.22
2018-06-11T04:49:45.172Z,19.29
2018-06-11T04:50:45.173Z,19.19
2018-06-11T04:51:45.171Z,19.23
2018-06-11T04:52:45.176Z,19.19
2018-06-11T04:53:45.178Z,19.19
2018-06-11T04:54:45.178Z,19.26
2018-06-11T04:55:45.175Z,19.39
2018-06-11T04:56:45.177Z,19.31
2018-06-11T04:57:45.178Z,19.39
2018-06-11T04:58:45.179Z,19.39
2018-06-11T04:59:45.177Z,19.46
2018-06-11T05:00:45.179Z,19.55
2018-06-11T05:01:45.188Z,19.59
2018-06-11T05:02:45.182Z,19.50
2018-06-11T05:03:45.183Z,19.51
2018-06-11T05:04:45.183Z,19.59
2018-06-11T05:05:45.184Z,19.58
2018-06-11T05:06:45.185Z,19.50
2018-06-11T05:07:45.184Z,19.50
2018-06-11T05:08:45.184Z,19.50
2018-06-11T05:09:45.187Z,19.48
2018-06-11T05:10:45.188Z,19.59
2018-06-11T05:11:45.185Z,19.58
2018-06-11T05:12:45.190Z,19.50
2018-06-11T05:13:45.189Z,19.56
2018-06-11T05:14:45.193Z,19.71
2018-06-11T05:15:45.188Z,19.65
2018-06-11T05:16:45.190Z,19.68
2018-06-11T05:17:45.195Z,19.69
2018-06-11T05:18:45.195Z,19.71
2018-06-11T05:19:45.197Z,19.80
2018-06-11T05:20:45.195Z,19.73
2018-06-11T05:21:45.195Z,19.78
2018-06-11T05:22:45.199Z,19.77
2018-06-11T05:23:45.201Z,19.88
2018-06-11T05:24:45.200Z,19.86
2018-06-11T05:25:45.201Z,19.77
2018-06-11T05:26:45.201Z,19.92
2018-06-11T05:27:45.202Z,19.87
2018-06-11T05:28:45.210Z,19.83
2018-06-11T05:29:45.204Z,19.95
2018-06-11T05:30:45.206Z,19.98
2018-06-11T05:31:45.205Z,19.78
2018-06-11T05:32:45.212Z,20.01
2018-06-11T05:33:45.209Z,20.02
2018-06-11T05:34:45.257Z,20.14
2018-06-11T05:35:45.211Z,20.17
2018-06-11T05:36:45.212Z,20.13
2018-06-11T05:37:45.213Z,20.17
2018-06-11T05:38:45.217Z,20.24
2018-06-11T05:39:45.216Z,20.29
2018-06-11T05:40:45.218Z,20.39
2018-06-11T05:41:45.218Z,20.26
2018-06-11T05:42:45.222Z,20.28
2018-06-11T05:43:45.221Z,20.29
2018-06-11T05:44:45.222Z,20.24
2018-06-11T05:45:45.223Z,20.24
2018-06-11T05:46:45.225Z,20.28
2018-06-11T05:47:45.228Z,20.17
2018-06-11T05:48:45.227Z,20.17
2018-06-11T05:49:45.229Z,20.18
2018-06-11T05:50:45.231Z,20.11
2018-06-11T05:51:45.234Z,20.14
2018-06-11T05:52:45.232Z,20.16
2018-06-11T05:53:45.239Z,20.23
2018-06-11T05:54:45.236Z,20.24
2018-06-11T05:55:45.240Z,20.28
2018-06-11T05:56:45.240Z,20.29
2018-06-11T05:57:45.239Z,20.31
2018-06-11T05:58:45.240Z,20.10
2018-06-11T05:59:45.241Z,20.16
2018-06-11T06:00:45.242Z,20.17
2018-06-11T06:01:45.244Z,20.02
2018-06-11T06:02:45.245Z,20.17
2018-06-11T06:03:45.249Z,20.16
2018-06-11T06:04:45.248Z,20.16
2018-06-11T06:05:45.253Z,20.16
2018-06-11T06:06:45.253Z,20.24
2018-06-11T06:07:45.251Z,20.24
2018-06-11T06:08:45.264Z,20.23
2018-06-11T06:09:45.256Z,20.21
2018-06-11T06:10:45.257Z,20.20
2018-06-11T06:11:45.257Z,20.31
2018-06-11T06:12:45.259Z,20.33
2018-06-11T06:13:45.259Z,20.51
2018-06-11T06:14:45.262Z,20.41
2018-06-11T06:15:45.263Z,20.54
2018-06-11T06:16:45.265Z,20.57
2018-06-11T06:17:45.269Z,20.54
2018-06-11T06:18:45.268Z,20.61
2018-06-11T06:19:45.268Z,20.79
2018-06-11T06:20:45.272Z,20.67
2018-06-11T06:21:45.271Z,20.54
2018-06-11T06:22:45.273Z,20.54
2018-06-11T06:23:45.272Z,20.55
2018-06-11T06:24:45.278Z,20.58
2018-06-11T06:25:45.278Z,20.58
2018-06-11T06:26:45.321Z,20.64
2018-06-11T06:27:45.283Z,20.69
2018-06-11T06:28:45.283Z,20.77
2018-06-11T06:29:45.286Z,20.97
2018-06-11T06:30:45.286Z,21.09
2018-06-11T06:31:45.286Z,20.97
2018-06-11T06:32:45.290Z,20.99
2018-06-11T06:33:45.289Z,20.95
2018-06-11T06:34:45.337Z,20.80
2018-06-11T06:35:45.295Z,20.87
2018-06-11T06:36:45.294Z,20.84
2018-06-11T06:37:45.297Z,20.64
2018-06-11T06:38:45.298Z,20.57
2018-06-11T06:39:45.301Z,20.61
2018-06-11T06:40:45.301Z,20.66
2018-06-11T06:41:45.304Z,20.79
2018-06-11T06:42:45.306Z,20.88
2018-06-11T06:43:45.305Z,20.91
2018-06-11T06:44:45.307Z,20.95
2018-06-11T06:45:45.307Z,20.95
2018-06-11T06:46:45.315Z,21.16
2018-06-11T06:47:45.313Z,21.21
2018-06-11T06:48:45.312Z,21.29
2018-06-11T06:49:45.317Z,21.50
2018-06-11T06:50:45.318Z,21.98
2018-06-11T06:51:45.320Z,21.84
2018-06-11T06:52:45.328Z,21.84
2018-06-11T06:53:45.371Z,21.65
2018-06-11T06:54:45.326Z,21.59
2018-06-11T06:55:45.327Z,21.47
2018-06-11T06:56:45.328Z,21.54
2018-06-11T06:57:45.338Z,21.53
2018-06-11T06:58:45.335Z,21.68
2018-06-11T06:59:45.333Z,21.64
2018-06-11T07:00:45.338Z,21.64
2018-06-11T07:01:45.337Z,21.64
2018-06-11T07:02:45.339Z,21.43
2018-06-11T07:03:45.342Z,21.49
2018-06-11T07:04:45.341Z,21.37
2018-06-11T07:05:45.347Z,21.47
2018-06-11T07:06:45.348Z,21.43
2018-06-11T07:07:45.349Z,21.58
2018-06-11T07:08:45.350Z,21.83
2018-06-11T07:09:45.358Z,22.27
2018-06-11T07:10:45.357Z,22.33
2018-06-11T07:11:45.357Z,22.91
2018-06-11T07:12:45.360Z,23.54
2018-06-11T07:13:45.403Z,23.39
2018-06-11T07:14:45.364Z,23.55
2018-06-11T07:15:45.365Z,23.31
2018-06-11T07:16:45.370Z,23.15
2018-06-11T07:17:45.372Z,23.12
2018-06-11T07:18:45.376Z,22.90
2018-06-11T07:19:45.375Z,22.97
2018-06-11T07:20:45.379Z,22.85
2018-06-11T07:21:45.382Z,22.65
2018-06-11T07:22:45.384Z,22.55
2018-06-11T07:23:45.389Z,22.30
2018-06-11T07:24:45.389Z,22.12
2018-06-11T07:25:45.392Z,21.94
2018-06-11T07:26:45.394Z,21.84
2018-06-11T07:27:45.396Z,21.72
2018-06-11T07:28:45.398Z,21.64
2018-06-11T07:29:45.402Z,21.62
2018-06-11T07:30:45.405Z,21.67
2018-06-11T07:31:45.406Z,21.71
2018-06-11T07:32:45.409Z,21.77
2018-06-11T07:33:45.411Z,21.98
2018-06-11T07:34:45.417Z,22.06
2018-06-11T07:35:45.416Z,22.35
2018-06-11T07:36:45.420Z,22.97
2018-06-11T07:37:45.426Z,24.16
2018-06-11T07:38:45.420Z,24.39
2018-06-11T07:39:45.456Z,24.57
2018-06-11T07:40:45.430Z,25.39
2018-06-11T07:41:45.475Z,25.15
2018-06-11T07:42:45.436Z,25.58
2018-06-11T07:43:45.452Z,26.44
2018-06-11T07:44:45.458Z,25.83
2018-06-11T07:45:45.445Z,25.24
2018-06-11T07:46:45.449Z,24.65
2018-06-11T07:47:45.492Z,24.28
2018-06-11T07:48:45.459Z,24.34
2018-06-11T07:49:45.461Z,24.24
2018-06-11T07:50:45.469Z,24.32
2018-06-11T07:51:45.483Z,25.03
2018-06-11T07:52:45.522Z,26.66
2018-06-11T07:53:45.474Z,26.62
2018-06-11T07:54:45.476Z,26.30
2018-06-11T07:55:45.504Z,26.32
2018-06-11T07:56:45.485Z,27.79
2018-06-11T07:57:45.491Z,28.73
2018-06-11T07:58:45.497Z,28.14
2018-06-11T07:59:45.501Z,28.37
2018-06-11T08:00:45.508Z,29.09
2018-06-11T08:01:45.509Z,29.67
2018-06-11T08:02:45.543Z,27.90
2018-06-11T08:03:45.520Z,26.67
2018-06-11T08:04:45.524Z,26.18
2018-06-11T08:05:45.582Z,25.30
2018-06-11T08:06:45.546Z,25.08
2018-06-11T08:07:45.538Z,24.84
2018-06-11T08:08:45.549Z,24.43
2018-06-11T08:09:45.799Z,24.37
2018-06-11T08:10:45.555Z,24.21
2018-06-11T08:11:45.562Z,23.98
2018-06-11T08:12:45.567Z,23.80
2018-06-11T08:13:45.652Z,23.69
2018-06-11T08:14:45.582Z,23.75
2018-06-11T08:15:45.581Z,23.93
2018-06-11T08:16:45.585Z,24.12
2018-06-11T08:17:45.591Z,24.22
2018-06-11T08:18:45.595Z,24.42
2018-06-11T08:19:45.598Z,24.83
2018-06-11T08:20:45.791Z,24.73
2018-06-11T08:21:45.611Z,24.35
2018-06-11T08:22:45.613Z,24.69
2018-06-11T08:23:45.615Z,24.91
2018-06-11T08:24:45.650Z,24.47
2018-06-11T08:25:45.625Z,24.53
2018-06-11T08:26:45.759Z,24.57
2018-06-11T08:27:45.633Z,24.46
2018-06-11T08:28:45.638Z,24.99
2018-06-11T08:29:45.646Z,25.00
2018-06-11T08:30:45.652Z,25.14
2018-06-11T08:31:45.650Z,24.57
2018-06-11T08:32:45.655Z,24.24
2018-06-11T08:33:45.662Z,23.95
2018-06-11T08:34:45.705Z,23.85
2018-06-11T08:35:45.729Z,23.79
2018-06-11T08:36:45.675Z,23.68
2018-06-11T08:37:45.671Z,23.68
2018-06-11T08:38:45.681Z,23.61
2018-06-11T08:39:45.752Z,23.47
2018-06-11T08:40:45.684Z,23.10
2018-06-11T08:41:45.693Z,22.85
2018-06-11T08:42:45.696Z,22.64
2018-06-11T08:43:45.698Z,22.51
2018-06-11T08:44:45.703Z,22.36
2018-06-11T08:45:45.706Z,22.39
2018-06-11T08:46:45.712Z,22.49
2018-06-11T08:47:45.714Z,22.45
2018-06-11T08:48:45.719Z,22.64
2018-06-11T08:49:45.725Z,22.88
2018-06-11T08:50:45.727Z,23.78
2018-06-11T08:51:45.728Z,25.27
2018-06-11T08:52:45.734Z,26.01
2018-06-11T08:53:45.740Z,26.51
2018-06-11T08:54:45.775Z,25.33
2018-06-11T08:55:45.744Z,24.60
2018-06-11T08:56:45.751Z,24.52
2018-06-11T08:57:45.753Z,23.90
2018-06-11T08:58:45.757Z,23.75
2018-06-11T08:59:45.772Z,23.83
2018-06-11T09:00:45.763Z,23.75
2018-06-11T09:01:45.772Z,23.91
2018-06-11T09:02:45.774Z,24.61
2018-06-11T09:03:45.782Z,25.64
2018-06-11T09:04:45.784Z,26.54
2018-06-11T09:05:45.787Z,26.63
2018-06-11T09:06:45.828Z,26.95
2018-06-11T09:07:45.794Z,26.60
2018-06-11T09:08:45.799Z,26.05
2018-06-11T09:09:45.802Z,25.62
2018-06-11T09:10:45.806Z,25.35
2018-06-11T09:11:45.809Z,25.54
2018-06-11T09:12:45.816Z,25.32
2018-06-11T09:13:45.822Z,25.15
2018-06-11T09:14:45.825Z,24.98
2018-06-11T09:15:45.825Z,24.99
2018-06-11T09:16:45.832Z,24.90
2018-06-11T09:17:45.839Z,24.90
2018-06-11T09:18:45.843Z,24.73
2018-06-11T09:19:45.842Z,24.76
2018-06-11T09:20:45.847Z,24.40
2018-06-11T09:21:45.850Z,23.90
2018-06-11T09:22:45.855Z,23.78
2018-06-11T09:23:45.858Z,23.40
2018-06-11T09:24:45.860Z,23.40
2018-06-11T09:25:45.866Z,23.17
2018-06-11T09:26:45.869Z,23.16
2018-06-11T09:27:45.874Z,23.17
2018-06-11T09:28:45.874Z,23.46
2018-06-11T09:29:45.879Z,23.70
2018-06-11T09:30:45.935Z,23.98
2018-06-11T09:31:45.889Z,24.22
2018-06-11T09:32:45.891Z,24.37
2018-06-11T09:33:45.893Z,24.50
2018-06-11T09:34:45.896Z,24.55
2018-06-11T09:35:45.902Z,24.32
2018-06-11T09:36:45.903Z,24.47
2018-06-11T09:37:45.910Z,24.21
2018-06-11T09:38:45.910Z,24.12
2018-06-11T09:39:45.913Z,24.22
2018-06-11T09:40:45.917Z,24.06
2018-06-11T09:41:45.922Z,23.93
2018-06-11T09:42:45.919Z,23.85
2018-06-11T09:43:45.972Z,23.94
2018-06-11T09:44:45.929Z,23.87
2018-06-11T09:45:45.934Z,24.00
2018-06-11T09:46:45.937Z,24.08
2018-06-11T09:47:45.941Z,23.91
2018-06-11T09:48:45.944Z,23.85
2018-06-11T09:49:45.947Z,23.66
2018-06-11T09:50:46.054Z,23.55
2018-06-11T09:51:45.955Z,23.42
2018-06-11T09:52:45.956Z,23.58
2018-06-11T09:53:45.961Z,23.61
2018-06-11T09:54:45.964Z,23.65
2018-06-11T09:55:45.989Z,23.68
2018-06-11T09:56:45.971Z,23.93
2018-06-11T09:57:45.975Z,23.90
2018-06-11T09:58:45.978Z,24.02
2018-06-11T09:59:45.980Z,24.24
2018-06-11T10:00:45.983Z,24.02
2018-06-11T10:01:45.986Z,24.06
2018-06-11T10:02:46.150Z,24.12
2018-06-11T10:03:45.995Z,23.93
2018-06-11T10:04:45.997Z,23.98
2018-06-11T10:05:46.001Z,23.70
2018-06-11T10:06:46.005Z,23.66
2018-06-11T10:07:46.010Z,23.70
2018-06-11T10:08:46.011Z,23.65
2018-06-11T10:09:46.015Z,23.61
2018-06-11T10:10:46.017Z,23.70
2018-06-11T10:11:46.019Z,23.88
2018-06-11T10:12:46.215Z,24.06
2018-06-11T10:13:46.030Z,24.15
2018-06-11T10:14:46.031Z,24.22
2018-06-11T10:15:46.033Z,24.20
2018-06-11T10:16:46.037Z,24.05
2018-06-11T10:17:46.185Z,24.20
2018-06-11T10:18:46.042Z,24.35
2018-06-11T10:19:46.046Z,24.34
2018-06-11T10:20:46.048Z,24.39
2018-06-11T10:21:46.053Z,24.60
2018-06-11T10:22:46.057Z,24.76
2018-06-11T10:23:46.060Z,24.87
2018-06-11T10:24:46.117Z,24.95
2018-06-11T10:25:46.067Z,25.06
2018-06-11T10:26:46.073Z,25.14
2018-06-11T10:27:46.073Z,25.51
2018-06-11T10:28:46.074Z,25.73
2018-06-11T10:29:46.228Z,25.85
2018-06-11T10:30:46.088Z,25.99
2018-06-11T10:31:46.094Z,26.07
2018-06-11T10:32:46.098Z,26.07
2018-06-11T10:33:46.095Z,26.32
2018-06-11T10:34:46.450Z,26.52
2018-06-11T10:35:46.103Z,26.50
2018-06-11T10:36:46.106Z,26.63
2018-06-11T10:37:46.110Z,26.52
2018-06-11T10:38:46.114Z,26.30
2018-06-11T10:39:46.121Z,26.29
2018-06-11T10:40:46.128Z,26.23
2018-06-11T10:41:46.128Z,26.07
2018-06-11T10:42:46.314Z,25.77
2018-06-11T10:43:46.138Z,25.76
2018-06-11T10:44:46.330Z,25.50
2018-06-11T10:45:46.149Z,25.45
2018-06-11T10:46:46.148Z,25.14
2018-06-11T10:47:46.415Z,25.03
2018-06-11T10:48:46.156Z,25.00
2018-06-11T10:49:46.161Z,24.95
2018-06-11T10:50:46.164Z,25.09
2018-06-11T10:51:46.168Z,25.00
2018-06-11T10:52:46.171Z,24.77
2018-06-11T10:53:46.175Z,24.73
2018-06-11T10:54:46.180Z,24.88
2018-06-11T10:55:46.187Z,24.90
2018-06-11T10:56:46.387Z,24.88
2018-06-11T10:57:46.191Z,24.91
2018-06-11T10:58:46.197Z,24.98
2018-06-11T10:59:46.199Z,24.87
2018-06-11T11:00:46.203Z,24.69
2018-06-11T11:01:46.208Z,24.45
2018-06-11T11:02:46.253Z,24.62
2018-06-11T11:03:46.217Z,24.49
2018-06-11T11:04:46.221Z,24.60
2018-06-11T11:05:46.260Z,24.76
2018-06-11T11:06:46.229Z,24.76
2018-06-11T11:07:46.228Z,24.85
2018-06-11T11:08:46.240Z,24.84
2018-06-11T11:09:46.237Z,24.73
2018-06-11T11:10:46.241Z,24.57
2018-06-11T11:11:46.244Z,24.55
2018-06-11T11:12:46.248Z,24.65
2018-06-11T11:13:46.447Z,24.78
2018-06-11T11:14:46.259Z,24.83
2018-06-11T11:15:46.263Z,24.85
2018-06-11T11:16:46.269Z,24.90
2018-06-11T11:17:46.408Z,24.78
2018-06-11T11:18:46.527Z,24.80
2018-06-11T11:19:46.273Z,24.52
2018-06-11T11:20:46.359Z,24.46
2018-06-11T11:21:46.281Z,24.49
2018-06-11T11:22:46.283Z,24.71
2018-06-11T11:23:46.400Z,24.77
2018-06-11T11:24:46.560Z,24.78
2018-06-11T11:25:46.517Z,24.57
2018-06-11T11:26:46.301Z,24.77
2018-06-11T11:27:46.301Z,24.60
2018-06-11T11:28:46.397Z,24.49
2018-06-11T11:29:46.308Z,24.32
2018-06-11T11:30:46.311Z,24.22
2018-06-11T11:31:46.318Z,24.21
2018-06-11T11:32:46.319Z,24.06
2018-06-11T11:33:46.334Z,24.09
2018-06-11T11:34:46.333Z,24.20
2018-06-11T11:35:46.331Z,24.22
2018-06-11T11:36:46.335Z,24.22
2018-06-11T11:37:46.334Z,24.28
2018-06-11T11:38:46.340Z,24.25
2018-06-11T11:39:46.569Z,24.35
2018-06-11T11:40:46.347Z,24.49
2018-06-11T11:41:46.350Z,24.47
2018-06-11T11:42:46.352Z,24.53
2018-06-11T11:43:46.355Z,24.60
2018-06-11T11:44:46.358Z,24.57
2018-06-11T11:45:46.361Z,24.53
2018-06-11T11:46:46.373Z,24.55
2018-06-11T11:47:46.447Z,24.34
2018-06-11T11:48:46.371Z,24.27
2018-06-11T11:49:46.390Z,24.24
2018-06-11T11:50:46.377Z,24.39
2018-06-11T11:51:46.432Z,24.30
2018-06-11T11:52:46.383Z,24.35
2018-06-11T11:53:46.388Z,24.37
2018-06-11T11:54:46.396Z,24.37
2018-06-11T11:55:46.396Z,24.40
2018-06-11T11:56:46.400Z,24.46
2018-06-11T11:57:46.403Z,24.50
2018-06-11T11:58:46.405Z,24.65
2018-06-11T11:59:46.457Z,24.55
2018-06-11T12:00:46.410Z,24.45
2018-06-11T12:01:46.434Z,24.43
2018-06-11T12:02:46.417Z,24.45
2018-06-11T12:03:46.424Z,24.39
2018-06-11T12:04:46.426Z,24.50
2018-06-11T12:05:46.466Z,24.52
2018-06-11T12:06:46.680Z,24.65
2018-06-11T12:07:46.431Z,24.78
2018-06-11T12:08:46.429Z,24.87
2018-06-11T12:09:46.434Z,24.88
2018-06-11T12:10:46.440Z,24.88
2018-06-11T12:11:46.443Z,24.76
2018-06-11T12:12:46.508Z,24.61
2018-06-11T12:13:46.464Z,24.78
2018-06-11T12:14:46.465Z,24.88
2018-06-11T12:15:46.450Z,24.88
2018-06-11T12:16:46.454Z,24.95
2018-06-11T12:17:46.459Z,24.95
2018-06-11T12:18:46.461Z,25.05
2018-06-11T12:19:46.464Z,25.05
2018-06-11T12:20:46.467Z,25.09
2018-06-11T12:21:46.470Z,25.21
2018-06-11T12:22:46.475Z,25.30
2018-06-11T12:23:46.476Z,24.93
2018-06-11T12:24:46.480Z,25.02
2018-06-11T12:25:46.483Z,24.87
2018-06-11T12:26:46.485Z,24.99
2018-06-11T12:27:46.491Z,25.05
2018-06-11T12:28:46.492Z,25.10
2018-06-11T12:29:46.496Z,25.30
2018-06-11T12:30:46.498Z,25.10
2018-06-11T12:31:46.498Z,25.10
2018-06-11T12:32:46.505Z,24.98
2018-06-11T12:33:46.508Z,24.93
2018-06-11T12:34:46.673Z,24.95
2018-06-11T12:35:46.515Z,25.09
2018-06-11T12:36:46.518Z,25.09
2018-06-11T12:37:46.521Z,25.06
2018-06-11T12:38:46.525Z,25.02
2018-06-11T12:39:46.538Z,24.93
2018-06-11T12:40:46.530Z,24.93
2018-06-11T12:41:46.535Z,25.02
2018-06-11T12:42:46.537Z,25.15
2018-06-11T12:43:46.542Z,25.05
2018-06-11T12:44:46.547Z,24.84
2018-06-11T12:45:46.550Z,24.88
2018-06-11T12:46:46.550Z,24.98
2018-06-11T12:47:46.553Z,24.76
2018-06-11T12:48:46.556Z,24.88
2018-06-11T12:49:46.561Z,24.91
2018-06-11T12:50:46.561Z,25.00
2018-06-11T12:51:46.567Z,24.99
2018-06-11T12:52:46.624Z,25.23